• Join FlightAware (Why Join?)
  • Login
  • US Flag 
04:24PM EDT


 

Airport Tracker/Info


-or-


 

Live Flight TrackerFlight Track Log ✈ JBU917 ✈ 03-May-2013 ✈ KJFK - KORD

Flight Track Log - Related Links

Times and Time Zones

All times are in EDT time to prevent confusion due to time zone crossing. See the JBU917 flight status page for this flight to view local times or setup timezone preferences in your user account.

Time Position Orientation Groundspeed Altitude Reporting Facility
EDT Latitude Longitude Course Direction KTS MPH feet Rate Location/Type
11:46PM 40.6167 -73.7000 294° West 198 228 3,000  Level New York TRACON
11:47PM 40.6667 -73.6500 37° Northeast 246 283 5,600 2,940 Climbing New York TRACON
11:48PM 40.8689 -74.2208 306° West  Level FlightAware Approximate
11:48PM 40.7333 -73.6000 30° Northeast 263 303 8,900  Level New York TRACON
11:49PM 40.9316 -74.3356 306° West  Level FlightAware Approximate
11:49PM 40.8000 -73.5500 30° Northeast 306 352 11,000  Level New York TRACON
11:50PM 40.9978 -74.4455 304° West  Level FlightAware Approximate
11:50PM 40.8833 -73.6167 329° Northwest 335 386 13,900  Level New York TRACON
11:51PM 41.0588 -74.5596 294° West  Level FlightAware Approximate
11:51PM 40.9833 -73.6667 339° North 324 373 16,600  Level New York TRACON
11:52PM 41.0333 -73.7167 323° Northwest 299 344 17,000 180 Climbing New York TRACON
11:53PM 41.1333 -73.8333 319° Northwest 321 369 17,000  Level New York TRACON
11:53PM 41.1308 -73.8867 266° West 354 407 17,000  Level New York Center
11:54PM 41.1292 -74.0325 269° West 375 432 17,000  Level New York Center
11:55PM 41.1319 -74.1511 272° West 387 445 17,000  Level New York Center
11:56PM 41.1400 -74.3031 274° West 381 438 17,000 300 Level New York Center
11:57PM 41.1739 -74.4178 291° West 371 427 17,700 1,200 Climbing New York Center
11:58PM 41.2156 -74.5553 292° West 377 434 19,500 2,040 Climbing New York Center
11:59PM 41.2547 -74.6953 290° West 383 441 21,700 2,040 Climbing New York Center
12:00AM 41.2958 -74.8331 292° West 397 457 23,600 1,740 Climbing New York Center
12:01AM 41.3308 -74.9650 289° West 404 465 25,300 1,500 Climbing New York Center
12:02AM 41.3714 -75.1086 291° West 410 472 26,600 1,380 Climbing New York Center
12:03AM 41.4119 -75.2550 290° West 418 481 28,100 1,380 Climbing New York Center
12:04AM 41.4539 -75.4044 291° West 423 487 29,500 1,380 Climbing New York Center
12:05AM 41.4958 -75.5542 291° West 423 487 31,000 1,440 Climbing New York Center
12:06AM 41.5378 -75.7014 291° West 423 487 32,400 1,260 Climbing New York Center
12:07AM 41.5797 -75.8458 291° West 423 487 33,500 1,140 Climbing New York Center
12:08AM 41.6233 -75.9906 292° West 423 487 34,700 1,080 Climbing New York Center
12:09AM 41.6606 -76.1350 289° West 416 479 35,800 600 Climbing New York Center
12:10AM 41.7039 -76.2803 292° West 416 479 36,000 60 Climbing New York Center
12:11AM 41.7500 -76.4508 290° West 416 479 36,000  Level New York Center
12:12AM 41.7853 -76.5847 290° West 435 501 36,000  Level New York Center
12:13AM 41.8297 -76.7389 291° West 435 501 36,000  Level New York Center
12:15AM 41.8925 -76.9622 291° West 435 501 36,000  Level Cleveland Center
12:16AM 41.9328 -77.1164 289° West 435 501 36,000  Level Cleveland Center
12:17AM 41.9747 -77.2706 290° West 440 506 36,000  Level Cleveland Center
12:18AM 42.0167 -77.4247 290° West 440 506 36,000  Level Cleveland Center
12:19AM 42.0564 -77.5794 289° West 440 506 36,000  Level Cleveland Center
12:20AM 42.0978 -77.7372 290° West 440 506 36,000  Level Cleveland Center
12:21AM 42.1392 -77.8950 290° West 440 506 36,000  Level Cleveland Center
12:22AM 42.1800 -78.0472 290° West 440 506 36,000  Level Cleveland Center
12:23AM 42.2211 -78.2083 289° West 440 506 36,000  Level Cleveland Center
12:24AM 42.2617 -78.3611 290° West 440 506 36,000  Level Cleveland Center
12:25AM 42.3019 -78.5169 289° West 440 506 36,000  Level Cleveland Center
12:26AM 42.3425 -78.6786 289° West 440 506 36,000  Level Cleveland Center
12:27AM 42.3825 -78.8347 289° West 440 506 36,000  Level Cleveland Center
12:28AM 42.4200 -78.9942 288° West 440 506 36,000  Level Cleveland Center
12:29AM 42.4617 -79.1506 290° West 440 506 36,000  Level Cleveland Center
12:30AM 42.4950 -79.3244 285° West 440 506 36,000  Level Cleveland Center
12:31AM 42.5031 -79.4933 274° West 445 512 36,000  Level Cleveland Center
12:32AM 42.5108 -79.6594 274° West 445 512 36,000  Level Cleveland Center
12:33AM 42.5181 -79.8283 273° West 445 512 36,000  Level Cleveland Center
12:34AM 42.5294 -79.9886 276° West 439 505 36,000  Level Cleveland Center
12:35AM 42.5303 -80.1353 270° West 439 505 36,000  Level Cleveland Center
12:36AM 42.5369 -80.3014 273° West 434 499 36,000  Level Cleveland Center
12:37AM 42.5436 -80.4619 273° West 438 504 36,000  Level Cleveland Center
12:38AM 42.5497 -80.6225 273° West 438 504 36,000  Level Cleveland Center
12:39AM 42.5581 -80.7889 274° West 438 504 36,000  Level Cleveland Center
12:40AM 42.5639 -80.9525 273° West 444 511 36,000  Level Cleveland Center
12:41AM 42.5797 -81.1303 277° West 436 502 36,000  Level Cleveland Center
12:42AM 42.5975 -81.2994 278° West 442 509 36,000  Level Cleveland Center
12:43AM 42.6131 -81.4606 278° West 445 512 36,000  Level Cleveland Center
12:44AM 42.6306 -81.6272 278° West 451 519 36,000  Level Cleveland Center
12:45AM 42.6456 -81.7914 277° West 446 513 36,000  Level Cleveland Center
12:46AM 42.6603 -81.9581 277° West 446 513 36,000  Level Cleveland Center
12:47AM 42.6769 -82.1222 278° West 446 513 36,000  Level Cleveland Center
12:48AM 42.6936 -82.2894 278° West 446 513 36,000  Level Cleveland Center
12:49AM 42.7075 -82.4564 277° West 446 513 36,000  Level Cleveland Center
12:50AM 42.7236 -82.6236 278° West 446 513 36,000  Level Cleveland Center
12:51AM 42.7392 -82.7939 277° West 451 519 36,000  Level Cleveland Center
12:52AM 42.7544 -82.9642 277° West 451 519 36,000  Level Cleveland Center
12:53AM 42.7697 -83.1317 277° West 451 519 36,000  Level Cleveland Center
12:54AM 42.7825 -83.2961 276° West 446 513 36,000  Level Cleveland Center
12:55AM 42.7972 -83.4639 277° West 446 513 36,000  Level Cleveland Center
12:56AM 42.8117 -83.6286 277° West 446 513 36,000  Level Cleveland Center
12:57AM 42.8219 -83.7906 275° West 446 513 36,000  Level Cleveland Center
12:58AM 42.8339 -83.9553 276° West 446 513 36,000  Level Cleveland Center
12:59AM 42.8478 -84.1233 276° West 446 513 36,000 -120 Level Cleveland Center
01:00AM 42.8614 -84.2856 277° West 446 513 35,800 -1,200 Descending Cleveland Center
01:01AM 42.8711 -84.4333 275° West 446 513 33,700 -2,280 Descending Cleveland Center
01:02AM 42.8822 -84.5578 277° West 447 514 32,000 -1,020 Descending Chicago Center
01:03AM 42.8683 -84.7289 264° West 456 525 32,000  Level Chicago Center
01:04AM 42.8519 -84.8994 263° West 456 525 32,000  Level Chicago Center
01:05AM 42.8331 -85.0700 261° West 456 525 32,000  Level Chicago Center
01:06AM 42.8144 -85.2422 262° West 460 529 32,000  Level Chicago Center
01:07AM 42.7964 -85.4136 262° West 457 526 32,000  Level Chicago Center
01:08AM 42.7717 -85.5819 259° West 452 520 32,000 -300 Level Chicago Center
01:09AM 42.7408 -85.7511 256° West 456 525 31,500 -1,440 Descending Chicago Center
01:10AM 42.7097 -85.9228 256° West 462 532 29,100 -2,340 Descending Chicago Center
01:11AM 42.6792 -86.0919 256° West 459 528 26,800 -2,280 Descending Chicago Center
01:12AM 42.6492 -86.2544 256° West 448 516 24,600 -2,100 Descending Chicago Center
01:13AM 42.6206 -86.4067 256° West 424 488 22,600 -2,040 Descending Chicago Center
01:14AM 42.5914 -86.5569 255° West 412 474 20,500 -2,040 Descending Chicago Center
01:15AM 42.5650 -86.7047 256° West 400 460 18,600 -1,920 Descending Chicago Center
01:16AM 42.5322 -86.8406 252° West 387 445 16,700 -1,860 Descending Chicago Center
01:17AM 42.4933 -86.9697 248° West 379 436 14,900 -1,920 Descending Chicago Center
01:18AM 42.4575 -87.0986 249° West 371 427 12,900 -1,920 Descending Chicago Center
01:19AM 42.4233 -87.2292 251° West 369 425 11,100 -1,440 Descending Chicago Center
01:20AM 42.3883 -87.3533 249° West 359 413 10,000 -600 Descending Chicago Center
01:21AM 42.3558 -87.4717 250° West 345 397 10,000 -420 Level Chicago Center
01:22AM 42.3111 -87.5639 237° Southwest 301 346 9,200 -1,200 Descending Chicago Center
01:23AM 42.2514 -87.6281 219° Southwest 277 319 7,700 -1,140 Descending Chicago Center
01:24AM 42.1942 -87.6889 218° Southwest 266 306 7,000 -360 Descending Chicago Center
01:25AM 42.1494 -87.7361 218° Southwest 210 242 7,000  Level Chicago Center
01:26AM 42.1192 -87.7911 233° Southwest 195 224 7,000  Level Chicago Center
01:26AM 42.1167 -87.8333 265° West 203 234 7,000  Level Chicago TRACON
01:27AM 42.1000 -87.9000 251° West 204 235 7,000  Level Chicago TRACON
01:28AM 42.0833 -87.9833 255° West 204 235 7,000 -240 Level Chicago TRACON
01:29AM 42.0833 -88.0500 270° West 203 234 6,600 -900 Descending Chicago TRACON
01:30AM 42.0833 -88.1333 270° West 210 242 5,300 -1,320 Descending Chicago TRACON
01:31AM 42.0769 -88.1778 259° West 209 241 4,400 -780 Descending Chicago Center
01:32AM 42.0492 -88.2317 235° Southwest 196 226 4,000 -240 Descending Chicago Center
01:33AM 42.0036 -88.2347 183° South 175 201 4,000  Level Chicago Center
01:34AM 41.9847 -88.1778 114° Southeast 176 203 4,000 -240 Level Chicago Center
01:35AM 41.9689 -88.1197 110° East 169 194 3,600 -780 Descending Chicago Center
01:35AM 41.9667 -88.0833 95° East 168 193 2,900 -1,140 Descending Chicago TRACON
01:36AM 41.9667 -88.0333 90° East 158 182 2,100 -780 Descending Chicago TRACON
01:37AM 41.9667 -87.9833 90° East 120 138 1,500 -660 Descending Chicago TRACON
01:38AM 41.9667 -87.9500 90° East 122 140 900 -600 Descending Chicago TRACON